Currently 72°F in Moreno Valley, California, USA
72°F
74°F / 72°F
1 mph NE
0.00"
Saturday, July 21, 2018 1:07 AM PDT

Moreno Valley, California Weather Summary
Last 36 Hours

Temperature Winds Hourly Humidity Dewpoint
Time Report Norm Report Norm Max Gusts Precip. Rpt. Norm Rpt. Norm Pressure
1,3Sat 01:07 AM  72.0°F  69°F  1 mph NE  calm  3 mph  0.00"  66%  69%  60°F  58°F  28.10"
Sat 01:00 AM  72.2°F  69°F  2 mph NW  calm  6 mph  0.00"  66%  69%  60°F  58°F  28.10"
2Sat 12:00 AM  73.8°F  70°F  calm  calm  6 mph  0.00"  62%  65%  60°F  58°F  28.10"
Fri 11:00 PM  74.8°F  72°F  2 mph SW  1 mph  8 mph  0.00"  62%  61%  61°F  57°F  28.09"
Fri 10:00 PM  75.6°F  75°F  3 mph SW  1 mph  10 mph  0.00"  63%  56%  62°F  57°F  28.09"
Fri 09:00 PM  77.5°F  77°F  4 mph NW  3 mph  11 mph  0.00"  61%  50%  63°F  57°F  28.07"
Fri 08:00 PM  80.3°F  80°F  5 mph NW  5 mph  12 mph  0.00"  57%  45%  63°F  56°F  28.06"
Fri 07:00 PM  83.4°F  84°F  5 mph W  6 mph  12 mph  0.00"  53%  39%  64°F  55°F  28.06"
Fri 06:00 PM  86.6°F  89°F  9 mph NW  7 mph  15 mph  0.00"  50%  33%  65°F  55°F  28.04"
Fri 05:00 PM  88.9°F  92°F  4 mph SE  7 mph  15 mph  0.00"  47%  29%  65°F  54°F  28.06"
Fri 04:00 PM  90.3°F  94°F  8 mph NW  7 mph  16 mph  0.00"  45%  27%  66°F  54°F  28.06"
Fri 03:00 PM  92.8°F  94°F  6 mph W  6 mph  15 mph  0.00"  45%  26%  67°F  53°F  28.06"
Fri 02:00 PM  92.3°F  93°F  6 mph W  6 mph  14 mph  0.00"  46%  26%  68°F  52°F  28.08"
Fri 01:00 PM  91.3°F  91°F  6 mph W  5 mph  14 mph  0.00"  47%  29%  68°F  53°F  28.08"
Fri 12:00 PM  89.9°F  89°F  7 mph W  5 mph  14 mph  0.00"  49%  33%  67°F  55°F  28.09"
Fri 11:00 AM  88.6°F  85°F  6 mph W  3 mph  10 mph  0.00"  52%  39%  68°F  57°F  28.08"
Fri 10:00 AM  82.4°F  82°F  3 mph SW  2 mph  7 mph  0.00"  64%  47%  69°F  59°F  28.08"
Fri 09:00 AM  79.3°F  77°F  3 mph SW  2 mph  7 mph  0.00"  71%  56%  69°F  60°F  28.07"
Fri 08:00 AM  75.8°F  73°F  3 mph SW  1 mph  4 mph  0.00"  79%  66%  69°F  61°F  28.07"
Fri 07:00 AM  70.1°F  67°F  calm  calm  none  0.00"  90%  76%  67°F  59°F  28.08"
Fri 06:00 AM  68.5°F  65°F  calm  calm  1 mph  0.00"  90%  78%  65°F  58°F  28.07"
Fri 05:00 AM  69.5°F  66°F  calm  calm  none  0.00"  88%  77%  66°F  58°F  28.07"
Fri 04:00 AM  70.1°F  66°F  calm  calm  none  0.00"  86%  76%  65°F  58°F  28.07"
Fri 03:00 AM  71.1°F  67°F  calm  calm  none  0.00"  84%  75%  66°F  58°F  28.06"
Fri 02:00 AM  71.9°F  68°F  calm  calm  2 mph  0.00"  81%  72%  66°F  58°F  28.07"
Fri 01:00 AM  73.8°F  69°F  calm  calm  none  0.00"  76%  69%  66°F  58°F  28.08"
Fri 12:00 AM  74.9°F  70°F  calm  calm  5 mph  0.00"  73%  65%  65°F  58°F  28.08"
Thu 11:00 PM  76.3°F  72°F  calm  1 mph  5 mph  0.00"  69%  61%  65°F  57°F  28.08"
Thu 10:00 PM  77.1°F  75°F  3 mph NW  1 mph  7 mph  0.00"  66%  56%  65°F  57°F  28.09"
Thu 09:00 PM  78.1°F  77°F  3 mph NW  3 mph  11 mph  0.00"  63%  50%  64°F  56°F  28.09"
Thu 08:00 PM  79.8°F  80°F  7 mph SW  5 mph  13 mph  0.00"  58%  44%  63°F  56°F  28.08"
Thu 07:00 PM  82.1°F  84°F  6 mph SW  6 mph  16 mph  0.00"  57%  38%  65°F  55°F  28.06"
Thu 06:00 PM  86.2°F  89°F  8 mph W  7 mph  19 mph  0.00"  56%  33%  68°F  55°F  28.05"
Thu 05:00 PM  90.8°F  92°F  8 mph SW  7 mph  17 mph  0.00"  50%  29%  69°F  54°F  28.03"
Thu 04:00 PM  96.9°F  94°F  6 mph NW  7 mph  17 mph  0.00"  43%  27%  70°F  54°F  28.03"
Thu 03:00 PM  100.3°F  94°F  9 mph W  6 mph  16 mph  0.00"  38%  26%  69°F  53°F  28.04"
Thu 02:00 PM  100.3°F  93°F  8 mph W  6 mph  14 mph  0.00"  38%  26%  70°F  53°F  28.05"

  1. Current weather data. No green row appears if the current weather data is also the high or low for the current day.
  2. High temperature for the current day.
  3. Low temperature for the current day.

The Moreno Valley, California weather pages are a service of WeatherCurrents. Moreno Valley is located in Southern California's Inland Empire, east of Riverside and north of Perris, along the State Route 60 freeway.
Copyright ©Sat Jul 21 01:08:01 PDT 2018  WeatherCurrents. All rights reserved. - Submit questions and comments - Privacy Policy

This page automatically refreshes every 10 minutes.